createdAt,value
2017-12-19T00:00:40.256Z,88.47
2017-12-19T00:02:11.435Z,88.38
2017-12-19T00:03:34.617Z,88.58
2017-12-19T00:05:01.651Z,88.63
2017-12-19T00:06:32.770Z,88.81
2017-12-19T00:07:59.957Z,89.00
2017-12-19T00:09:23.183Z,88.91
2017-12-19T00:10:50.397Z,88.92
2017-12-19T00:12:17.634Z,88.95
2017-12-19T00:13:44.741Z,89.23
2017-12-19T00:15:11.915Z,89.38
2017-12-19T00:16:39.107Z,89.61
2017-12-19T00:18:06.202Z,89.35
2017-12-19T00:19:37.238Z,89.11
2017-12-19T00:21:00.595Z,89.26
2017-12-19T00:22:31.780Z,89.08
2017-12-19T00:23:54.800Z,89.26
2017-12-19T00:25:22.170Z,88.86
2017-12-19T00:26:53.311Z,89.23
2017-12-19T00:28:16.679Z,89.12
2017-12-19T00:29:43.749Z,89.08
2017-12-19T00:31:14.925Z,89.03
2017-12-19T00:32:38.142Z,88.86
2017-12-19T00:34:05.235Z,88.81
2017-12-19T00:35:36.425Z,88.68
2017-12-19T00:36:59.759Z,88.47
2017-12-19T00:38:27.078Z,88.76
2017-12-19T00:39:54.379Z,88.87
2017-12-19T00:41:21.544Z,89.11
2017-12-19T00:42:48.722Z,89.03
2017-12-19T00:44:19.912Z,88.71
2017-12-19T00:45:43.269Z,88.95
2017-12-19T00:47:14.486Z,89.10
2017-12-19T00:48:41.577Z,89.37
2017-12-19T00:50:04.628Z,89.59
2017-12-19T00:51:35.789Z,89.86
2017-12-19T00:53:03.074Z,90.21
2017-12-19T00:54:26.420Z,90.26
2017-12-19T00:55:57.544Z,90.53
2017-12-19T00:57:20.601Z,90.50
2017-12-19T00:58:47.914Z,90.60
2017-12-19T01:00:15.224Z,90.36
2017-12-19T01:01:42.444Z,90.05
2017-12-19T01:03:13.751Z,90.11
2017-12-19T01:04:40.867Z,90.39
2017-12-19T01:06:03.902Z,90.30
2017-12-19T01:07:35.167Z,90.37
2017-12-19T01:09:02.269Z,90.31
2017-12-19T01:10:25.422Z,90.25
2017-12-19T01:11:52.733Z,90.06
2017-12-19T01:13:23.902Z,89.89
2017-12-19T01:14:47.109Z,89.64
2017-12-19T01:16:14.423Z,89.37
2017-12-19T01:17:41.636Z,89.00
2017-12-19T01:19:08.734Z,88.82
2017-12-19T01:20:39.895Z,88.71
2017-12-19T01:22:07.067Z,88.93
2017-12-19T01:23:30.466Z,88.58
2017-12-19T01:24:57.665Z,88.75
2017-12-19T01:26:24.592Z,88.51
2017-12-19T01:27:55.648Z,88.32
2017-12-19T01:29:22.782Z,88.19
2017-12-19T01:30:49.866Z,88.10
2017-12-19T01:32:16.931Z,87.81
2017-12-19T01:33:40.232Z,87.98
2017-12-19T01:35:11.454Z,88.12
2017-12-19T01:36:34.701Z,88.16
2017-12-19T01:38:01.885Z,88.06
2017-12-19T01:39:29.247Z,88.05
2017-12-19T01:41:00.497Z,87.99
2017-12-19T01:42:23.843Z,88.12
2017-12-19T01:43:55.175Z,88.42
2017-12-19T01:45:18.470Z,88.54
2017-12-19T01:46:45.676Z,88.69
2017-12-19T01:48:16.932Z,88.65
2017-12-19T01:49:44.155Z,88.56
2017-12-19T01:51:11.446Z,88.72
2017-12-19T01:52:38.599Z,88.98
2017-12-19T01:54:01.937Z,88.94
2017-12-19T01:55:33.293Z,89.05
2017-12-19T01:57:00.461Z,89.14
2017-12-19T01:58:27.716Z,89.27
2017-12-19T01:59:51.012Z,89.26
2017-12-19T02:01:22.225Z,89.11
2017-12-19T02:02:49.469Z,88.91
2017-12-19T02:04:12.686Z,89.40
2017-12-19T02:05:43.777Z,89.33
2017-12-19T02:07:07.081Z,89.18
2017-12-19T02:08:34.222Z,89.19
2017-12-19T02:10:05.324Z,88.98
2017-12-19T02:11:28.597Z,89.14
2017-12-19T02:12:55.687Z,89.02
2017-12-19T02:14:27.053Z,89.42
2017-12-19T02:15:50.139Z,89.68
2017-12-19T02:17:17.452Z,89.64
2017-12-19T02:18:44.679Z,89.96
2017-12-19T02:20:12.031Z,90.09
2017-12-19T02:21:39.133Z,90.42
2017-12-19T02:23:10.255Z,90.44
2017-12-19T02:24:33.280Z,90.73
2017-12-19T02:26:00.303Z,90.92
2017-12-19T02:27:31.312Z,91.17
2017-12-19T02:28:54.429Z,91.16
2017-12-19T02:30:21.734Z,91.31
2017-12-19T02:31:52.869Z,91.33
2017-12-19T02:33:16.167Z,91.30
2017-12-19T02:34:43.487Z,91.12
2017-12-19T02:36:14.466Z,91.30
2017-12-19T02:37:37.651Z,91.02
2017-12-19T02:39:04.716Z,91.10
2017-12-19T02:40:32.087Z,90.95
2017-12-19T02:42:03.297Z,90.67
2017-12-19T02:43:30.643Z,90.40
2017-12-19T02:44:57.789Z,90.37
2017-12-19T02:46:21.148Z,90.45
2017-12-19T02:47:52.465Z,90.31
2017-12-19T02:49:19.774Z,90.13
2017-12-19T02:50:47.021Z,89.97
2017-12-19T02:52:14.274Z,89.87
2017-12-19T02:53:37.356Z,89.72
2017-12-19T02:55:04.475Z,89.58
2017-12-19T02:56:35.743Z,89.41
2017-12-19T02:58:03.109Z,89.34
2017-12-19T02:59:26.200Z,89.22
2017-12-19T03:00:53.428Z,89.13
2017-12-19T03:02:24.588Z,89.08
2017-12-19T03:03:52.142Z,89.01
2017-12-19T03:05:19.474Z,88.92
2017-12-19T03:06:46.506Z,88.91
2017-12-19T03:08:09.804Z,88.86
2017-12-19T03:09:40.921Z,88.79
2017-12-19T03:11:04.070Z,88.77
2017-12-19T03:12:31.342Z,88.72
2017-12-19T03:13:58.416Z,88.65
2017-12-19T03:15:29.585Z,88.65
2017-12-19T03:16:52.959Z,88.70
2017-12-19T03:18:24.122Z,88.72
2017-12-19T03:19:47.475Z,88.81
2017-12-19T03:21:18.315Z,89.40
2017-12-19T03:22:41.658Z,89.38
2017-12-19T03:24:12.699Z,89.34
2017-12-19T03:25:35.986Z,89.18
2017-12-19T03:27:03.233Z,89.55
2017-12-19T03:28:30.410Z,90.04
2017-12-19T03:30:01.718Z,90.53
2017-12-19T03:31:29.179Z,90.38
2017-12-19T03:32:56.410Z,90.76
2017-12-19T03:34:23.649Z,90.71
2017-12-19T03:35:46.818Z,90.73
2017-12-19T03:37:18.183Z,90.90
2017-12-19T03:38:45.317Z,90.96
2017-12-19T03:40:08.561Z,91.06
2017-12-19T03:41:35.850Z,91.62
2017-12-19T03:43:07.104Z,91.62
2017-12-19T03:44:34.129Z,91.56
2017-12-19T03:45:57.190Z,91.37
2017-12-19T03:47:24.498Z,91.35
2017-12-19T03:48:55.842Z,91.22
2017-12-19T03:50:19.202Z,91.20
2017-12-19T03:51:50.435Z,91.24
2017-12-19T03:53:13.645Z,91.49
2017-12-19T03:54:40.878Z,91.71
2017-12-19T03:56:07.995Z,91.73
2017-12-19T03:57:35.082Z,91.58
2017-12-19T03:59:02.407Z,91.80
2017-12-19T04:00:29.567Z,91.69
2017-12-19T04:02:00.803Z,91.68
2017-12-19T04:03:24.196Z,91.54
2017-12-19T04:04:51.478Z,91.43
2017-12-19T04:06:22.866Z,91.74
2017-12-19T04:07:45.998Z,91.78
2017-12-19T04:09:17.277Z,91.95
2017-12-19T04:10:44.638Z,92.04
2017-12-19T04:12:11.648Z,92.18
2017-12-19T04:13:34.848Z,91.94
2017-12-19T04:15:02.014Z,92.13
2017-12-19T04:16:33.034Z,92.53
2017-12-19T04:17:56.453Z,92.27
2017-12-19T04:19:23.650Z,92.61
2017-12-19T04:20:54.794Z,92.70
2017-12-19T04:22:18.073Z,92.33
2017-12-19T04:23:45.418Z,92.53
2017-12-19T04:25:12.772Z,92.75
2017-12-19T04:26:43.805Z,92.72
2017-12-19T04:28:07.000Z,92.47
2017-12-19T04:29:34.088Z,92.24
2017-12-19T04:31:01.444Z,91.97
2017-12-19T04:32:32.656Z,91.72
2017-12-19T04:33:55.811Z,91.42
2017-12-19T04:35:27.188Z,91.43
2017-12-19T04:36:50.249Z,91.47
2017-12-19T04:38:21.548Z,91.77
2017-12-19T04:39:48.759Z,92.07
2017-12-19T04:41:16.043Z,91.96
2017-12-19T04:42:39.213Z,91.83
2017-12-19T04:44:06.462Z,91.83
2017-12-19T04:45:37.437Z,91.70
2017-12-19T04:47:00.736Z,91.79
2017-12-19T04:48:28.006Z,91.75
2017-12-19T04:49:55.176Z,91.43
2017-12-19T04:51:22.449Z,91.35
2017-12-19T04:52:49.687Z,91.83
2017-12-19T04:54:20.866Z,92.31
2017-12-19T04:55:48.089Z,92.71
2017-12-19T04:57:11.202Z,92.99
2017-12-19T04:58:42.488Z,93.26
2017-12-19T05:00:05.639Z,93.17
2017-12-19T05:01:36.765Z,93.27
2017-12-19T05:03:04.261Z,93.28
2017-12-19T05:04:31.465Z,93.12
2017-12-19T05:05:54.896Z,93.37
2017-12-19T05:07:22.192Z,93.31
2017-12-19T05:08:49.326Z,93.27
2017-12-19T05:10:16.515Z,93.47
2017-12-19T05:11:47.852Z,93.48
2017-12-19T05:13:15.109Z,93.38
2017-12-19T05:14:42.256Z,93.70
2017-12-19T05:16:05.443Z,93.72
2017-12-19T05:17:32.483Z,93.60
2017-12-19T05:19:03.562Z,93.87
2017-12-19T05:20:30.797Z,93.63
2017-12-19T05:21:58.018Z,93.79
2017-12-19T05:23:25.153Z,93.49
2017-12-19T05:24:48.423Z,93.81
2017-12-19T05:26:19.427Z,94.08
2017-12-19T05:27:46.760Z,94.00
2017-12-19T05:29:10.036Z,94.42
2017-12-19T05:30:41.010Z,94.51
2017-12-19T05:32:04.049Z,94.72
2017-12-19T05:33:31.310Z,95.18
2017-12-19T05:35:02.409Z,95.13
2017-12-19T05:36:25.460Z,95.28
2017-12-19T05:37:52.828Z,94.83
2017-12-19T05:39:19.969Z,94.83
2017-12-19T05:40:51.269Z,94.80
2017-12-19T05:42:14.379Z,94.95
2017-12-19T05:43:41.689Z,95.09
2017-12-19T05:45:08.968Z,94.92
2017-12-19T05:46:36.205Z,95.13
2017-12-19T05:48:07.527Z,95.18
2017-12-19T05:49:30.778Z,95.29
2017-12-19T05:51:01.966Z,95.48
2017-12-19T05:52:25.010Z,95.44
2017-12-19T05:53:52.225Z,95.73
2017-12-19T05:55:19.525Z,95.86
2017-12-19T05:56:50.906Z,95.65
2017-12-19T05:58:18.124Z,95.53
2017-12-19T05:59:41.201Z,95.53
2017-12-19T06:01:12.445Z,95.40
2017-12-19T06:02:35.612Z,95.24
2017-12-19T06:04:06.896Z,95.45
2017-12-19T06:05:30.164Z,95.30
2017-12-19T06:07:01.397Z,95.33
2017-12-19T06:08:28.493Z,95.63
2017-12-19T06:09:51.880Z,95.69
2017-12-19T06:11:19.099Z,95.42
2017-12-19T06:12:46.476Z,95.39
2017-12-19T06:14:13.677Z,95.40
2017-12-19T06:15:40.876Z,95.04
2017-12-19T06:17:12.261Z,94.79
2017-12-19T06:18:35.137Z,94.78
2017-12-19T06:20:06.253Z,94.91
2017-12-19T06:21:29.458Z,94.93
2017-12-19T06:23:00.748Z,95.08
2017-12-19T06:24:27.829Z,95.05
2017-12-19T06:25:51.161Z,95.04
2017-12-19T06:27:22.394Z,95.11
2017-12-19T06:28:45.548Z,95.22
2017-12-19T06:30:16.612Z,95.42
2017-12-19T06:31:39.918Z,95.16
2017-12-19T06:33:06.779Z,95.44
2017-12-19T06:34:33.940Z,95.11
2017-12-19T06:36:01.193Z,94.98
2017-12-19T06:37:28.600Z,95.02
2017-12-19T06:38:59.743Z,95.04
2017-12-19T06:40:23.038Z,95.22
2017-12-19T06:41:50.348Z,95.42
2017-12-19T06:43:17.719Z,95.03
2017-12-19T06:44:45.030Z,95.05
2017-12-19T06:46:12.155Z,94.58
2017-12-19T06:47:39.476Z,94.83
2017-12-19T06:49:06.686Z,94.91
2017-12-19T06:50:33.647Z,95.23
2017-12-19T06:52:00.841Z,94.99
2017-12-19T06:53:32.259Z,95.15
2017-12-19T06:54:59.584Z,95.25
2017-12-19T06:56:26.569Z,95.55
2017-12-19T06:57:49.928Z,95.51
2017-12-19T06:59:17.159Z,95.58
2017-12-19T07:00:44.382Z,95.71
2017-12-19T07:02:15.516Z,95.70
2017-12-19T07:03:42.716Z,95.76
2017-12-19T07:05:05.975Z,95.83
2017-12-19T07:06:37.304Z,95.91
2017-12-19T07:08:04.531Z,95.93
2017-12-19T07:09:27.816Z,96.13
2017-12-19T07:10:54.928Z,96.25
2017-12-19T07:12:26.138Z,96.05
2017-12-19T07:13:53.367Z,96.06
2017-12-19T07:15:16.787Z,96.11
2017-12-19T07:16:47.995Z,96.35
2017-12-19T07:18:11.318Z,96.28
2017-12-19T07:19:42.481Z,96.39
2017-12-19T07:21:09.761Z,96.17
2017-12-19T07:22:32.752Z,96.04
2017-12-19T07:24:00.048Z,96.06
2017-12-19T07:25:27.383Z,96.04
2017-12-19T07:26:58.699Z,96.03
2017-12-19T07:28:21.849Z,95.81
2017-12-19T07:29:53.019Z,95.81
2017-12-19T07:31:20.348Z,95.67
2017-12-19T07:32:43.458Z,95.77
2017-12-19T07:34:14.816Z,95.98
2017-12-19T07:35:41.941Z,96.35
2017-12-19T07:37:09.286Z,96.16
2017-12-19T07:38:36.421Z,96.14
2017-12-19T07:40:03.871Z,95.93
2017-12-19T07:41:27.278Z,96.15
2017-12-19T07:42:58.451Z,95.93
2017-12-19T07:44:25.574Z,96.02
2017-12-19T07:45:52.915Z,96.10
2017-12-19T07:47:16.153Z,95.75
2017-12-19T07:48:43.391Z,95.92
2017-12-19T07:50:14.755Z,96.14
2017-12-19T07:51:37.892Z,96.04
2017-12-19T07:53:05.078Z,96.17
2017-12-19T07:54:36.333Z,96.06
2017-12-19T07:55:59.604Z,96.26
2017-12-19T07:57:26.985Z,96.46
2017-12-19T07:58:54.364Z,96.69
2017-12-19T08:00:21.723Z,96.43
2017-12-19T08:01:48.739Z,96.57
2017-12-19T08:03:19.934Z,96.83
2017-12-19T08:04:46.954Z,96.72
2017-12-19T08:06:10.055Z,96.98
2017-12-19T08:07:37.360Z,96.94
2017-12-19T08:09:04.340Z,97.01
2017-12-19T08:10:35.489Z,96.80
2017-12-19T08:11:58.660Z,97.07
2017-12-19T08:13:25.849Z,96.79
2017-12-19T08:14:57.020Z,96.88
2017-12-19T08:16:20.326Z,96.75
2017-12-19T08:17:51.475Z,96.88
2017-12-19T08:19:14.726Z,97.01
2017-12-19T08:20:45.883Z,97.07
2017-12-19T08:22:09.168Z,97.36
2017-12-19T08:23:40.273Z,97.10
2017-12-19T08:25:03.496Z,97.05
2017-12-19T08:26:30.646Z,96.96
2017-12-19T08:28:01.842Z,97.13
2017-12-19T08:29:29.197Z,97.22
2017-12-19T08:30:56.487Z,97.02
2017-12-19T08:32:23.654Z,97.07
2017-12-19T08:33:50.782Z,96.96
2017-12-19T08:35:18.162Z,96.95
2017-12-19T08:36:45.498Z,97.16
2017-12-19T08:38:12.788Z,97.19
2017-12-19T08:39:39.851Z,97.29
2017-12-19T08:41:07.141Z,97.30
2017-12-19T08:42:30.358Z,97.39
2017-12-19T08:43:57.507Z,97.51
2017-12-19T08:45:24.930Z,97.37
2017-12-19T08:46:55.911Z,96.93
2017-12-19T08:48:19.266Z,97.07
2017-12-19T08:49:46.539Z,96.90
2017-12-19T08:51:17.841Z,96.74
2017-12-19T08:52:45.187Z,96.75
2017-12-19T08:54:12.178Z,96.88
2017-12-19T08:55:39.380Z,96.88
2017-12-19T08:57:06.770Z,96.68
2017-12-19T08:58:30.082Z,96.55
2017-12-19T09:00:01.331Z,96.35
2017-12-19T09:01:24.618Z,95.92
2017-12-19T09:02:55.937Z,95.99
2017-12-19T09:04:18.909Z,96.01
2017-12-19T09:05:46.198Z,95.94
2017-12-19T09:07:17.447Z,95.90
2017-12-19T09:08:40.599Z,95.92
2017-12-19T09:10:11.752Z,95.83
2017-12-19T09:11:34.988Z,95.64
2017-12-19T09:13:02.276Z,95.81
2017-12-19T09:14:33.688Z,96.04
2017-12-19T09:16:00.857Z,96.33
2017-12-19T09:17:24.107Z,96.54
2017-12-19T09:18:55.311Z,96.85
2017-12-19T09:20:18.677Z,97.17
2017-12-19T09:21:45.985Z,97.13
2017-12-19T09:23:13.267Z,97.07
2017-12-19T09:24:40.428Z,96.98
2017-12-19T09:26:11.575Z,97.16
2017-12-19T09:27:34.842Z,97.09
2017-12-19T09:29:01.961Z,96.97
2017-12-19T09:30:29.288Z,96.77
2017-12-19T09:32:00.461Z,96.61
2017-12-19T09:33:23.734Z,96.33
2017-12-19T09:34:50.936Z,96.50
2017-12-19T09:36:22.250Z,96.88
2017-12-19T09:37:45.566Z,97.06
2017-12-19T09:39:12.816Z,97.35
2017-12-19T09:40:44.201Z,97.54
2017-12-19T09:42:07.345Z,97.64
2017-12-19T09:43:38.216Z,97.60
2017-12-19T09:45:01.626Z,97.50
2017-12-19T09:46:28.788Z,97.64
2017-12-19T09:47:55.945Z,97.47
2017-12-19T09:49:27.269Z,97.50
2017-12-19T09:50:50.273Z,97.48
2017-12-19T09:52:17.611Z,97.64
2017-12-19T09:53:48.786Z,97.67
2017-12-19T09:55:12.069Z,97.61
2017-12-19T09:56:39.218Z,97.65
2017-12-19T09:58:06.391Z,97.82
2017-12-19T09:59:37.615Z,97.86
2017-12-19T10:01:04.779Z,97.97
2017-12-19T10:02:27.944Z,97.96
2017-12-19T10:03:59.251Z,97.94
2017-12-19T10:05:26.490Z,97.75
2017-12-19T10:06:53.732Z,97.66
2017-12-19T10:08:21.143Z,97.53
2017-12-19T10:09:48.084Z,97.37
2017-12-19T10:11:11.512Z,97.31
2017-12-19T10:12:38.674Z,97.15
2017-12-19T10:14:09.698Z,97.14
2017-12-19T10:15:32.867Z,97.09
2017-12-19T10:17:00.015Z,96.98
2017-12-19T10:18:27.394Z,96.84
2017-12-19T10:19:54.673Z,96.69
2017-12-19T10:21:22.143Z,96.87
2017-12-19T10:22:49.240Z,96.84
2017-12-19T10:24:20.592Z,96.93
2017-12-19T10:25:43.811Z,96.84
2017-12-19T10:27:15.124Z,96.81
2017-12-19T10:28:38.397Z,96.94
2017-12-19T10:30:05.624Z,96.81
2017-12-19T10:31:32.891Z,96.78
2017-12-19T10:33:04.022Z,96.68
2017-12-19T10:34:27.227Z,96.82
2017-12-19T10:35:58.532Z,96.90
2017-12-19T10:37:21.676Z,96.82
2017-12-19T10:38:52.685Z,96.74
2017-12-19T10:40:19.895Z,96.41
2017-12-19T10:41:42.995Z,96.51
2017-12-19T10:43:10.381Z,96.36
2017-12-19T10:44:37.737Z,96.49
2017-12-19T10:46:04.861Z,96.59
2017-12-19T10:47:32.240Z,96.42
2017-12-19T10:49:03.596Z,96.50
2017-12-19T10:50:26.767Z,96.52
2017-12-19T10:51:54.099Z,96.35
2017-12-19T10:53:21.431Z,96.08
2017-12-19T10:54:48.621Z,96.09
2017-12-19T10:56:15.871Z,96.30
2017-12-19T10:57:43.161Z,96.18
2017-12-19T10:59:10.389Z,96.18
2017-12-19T11:00:37.595Z,96.39
2017-12-19T11:02:04.777Z,96.47
2017-12-19T11:03:31.903Z,96.23
2017-12-19T11:04:59.259Z,96.33
2017-12-19T11:06:26.561Z,96.09
2017-12-19T11:07:57.682Z,96.12
2017-12-19T11:09:24.968Z,96.03
2017-12-19T11:10:48.381Z,95.93
2017-12-19T11:12:15.551Z,95.74
2017-12-19T11:13:46.798Z,95.67
2017-12-19T11:15:14.074Z,95.56
2017-12-19T11:16:37.466Z,95.44
2017-12-19T11:18:08.593Z,95.32
2017-12-19T11:19:35.777Z,95.05
2017-12-19T11:21:02.921Z,95.14
2017-12-19T11:22:26.088Z,95.40
2017-12-19T11:23:53.181Z,95.36
2017-12-19T11:25:24.419Z,95.16
2017-12-19T11:26:51.467Z,95.33
2017-12-19T11:28:14.773Z,95.40
2017-12-19T11:29:42.046Z,95.29
2017-12-19T11:31:13.390Z,95.25
2017-12-19T11:32:36.560Z,95.15
2017-12-19T11:34:07.918Z,95.17
2017-12-19T11:35:31.265Z,95.24
2017-12-19T11:36:58.625Z,95.25
2017-12-19T11:38:25.935Z,95.16
2017-12-19T11:39:57.133Z,95.21
2017-12-19T11:41:20.427Z,95.09
2017-12-19T11:42:51.718Z,95.11
2017-12-19T11:44:15.002Z,95.11
2017-12-19T11:45:46.371Z,95.17
2017-12-19T11:47:09.533Z,95.13
2017-12-19T11:48:40.700Z,95.29
2017-12-19T11:50:07.777Z,95.24
2017-12-19T11:51:30.970Z,95.25
2017-12-19T11:53:02.279Z,95.07
2017-12-19T11:54:25.519Z,95.01
2017-12-19T11:55:56.884Z,94.79
2017-12-19T11:57:20.085Z,94.65
2017-12-19T11:58:47.332Z,94.50
2017-12-19T12:00:14.730Z,94.46
2017-12-19T12:01:41.950Z,94.42
2017-12-19T12:03:09.192Z,94.30
2017-12-19T12:04:36.258Z,94.16
2017-12-19T12:06:03.644Z,94.24
2017-12-19T12:07:30.894Z,94.22
2017-12-19T12:09:02.207Z,94.15
2017-12-19T12:10:25.433Z,94.31
2017-12-19T12:11:52.732Z,94.29
2017-12-19T12:13:19.956Z,93.98
2017-12-19T12:14:47.174Z,93.99
2017-12-19T12:16:14.383Z,94.32
2017-12-19T12:17:41.596Z,94.22
2017-12-19T12:19:08.868Z,94.01
2017-12-19T12:20:40.180Z,94.17
2017-12-19T12:22:07.538Z,93.92
2017-12-19T12:23:34.620Z,93.98
2017-12-19T12:24:57.886Z,93.73
2017-12-19T12:26:29.251Z,93.72
2017-12-19T12:27:52.493Z,93.52
2017-12-19T12:29:23.894Z,93.54
2017-12-19T12:30:50.959Z,93.34
2017-12-19T12:32:14.251Z,93.17
2017-12-19T12:33:45.516Z,93.13
2017-12-19T12:35:08.855Z,93.20
2017-12-19T12:36:40.028Z,93.12
2017-12-19T12:38:03.304Z,93.10
2017-12-19T12:39:30.526Z,92.58
2017-12-19T12:40:57.818Z,91.79
2017-12-19T12:42:28.864Z,92.13
2017-12-19T12:43:56.174Z,92.44
2017-12-19T12:45:19.336Z,91.63
2017-12-19T12:46:46.818Z,91.55
2017-12-19T12:48:13.942Z,91.54
2017-12-19T12:49:41.146Z,91.10
2017-12-19T12:51:12.441Z,91.28
2017-12-19T12:52:39.794Z,90.94
2017-12-19T12:54:03.028Z,90.98
2017-12-19T12:55:30.215Z,91.16
2017-12-19T12:56:57.504Z,91.07
2017-12-19T12:58:28.502Z,90.90
2017-12-19T12:59:52.006Z,90.90
2017-12-19T13:01:23.377Z,90.83
2017-12-19T13:02:46.538Z,90.44
2017-12-19T13:04:13.859Z,90.71
2017-12-19T13:05:45.069Z,90.94
2017-12-19T13:07:11.949Z,91.15
2017-12-19T13:08:35.306Z,91.32
2017-12-19T13:10:06.676Z,91.21
2017-12-19T13:11:29.883Z,91.17
2017-12-19T13:13:01.189Z,91.13
2017-12-19T13:14:24.480Z,91.20
2017-12-19T13:15:51.839Z,91.21
2017-12-19T13:17:18.945Z,91.16
2017-12-19T13:18:46.168Z,91.23
2017-12-19T13:20:13.429Z,91.36
2017-12-19T13:21:40.549Z,91.41
2017-12-19T13:23:07.705Z,91.46
2017-12-19T13:24:38.942Z,91.52
2017-12-19T13:26:02.143Z,91.70
2017-12-19T13:27:33.551Z,91.63
2017-12-19T13:28:56.724Z,91.66
2017-12-19T13:30:27.801Z,91.55
2017-12-19T13:31:51.161Z,91.47
2017-12-19T13:33:18.444Z,91.60
2017-12-19T13:34:45.924Z,91.59
2017-12-19T13:36:16.932Z,91.62
2017-12-19T13:37:40.161Z,91.64
2017-12-19T13:39:11.438Z,91.66
2017-12-19T13:40:34.640Z,91.62
2017-12-19T13:42:05.824Z,91.49
2017-12-19T13:43:33.226Z,91.44
2017-12-19T13:45:00.479Z,91.58
2017-12-19T13:46:23.658Z,91.66
2017-12-19T13:47:54.893Z,91.78
2017-12-19T13:49:22.052Z,91.50
2017-12-19T13:50:45.397Z,91.44
2017-12-19T13:52:12.670Z,91.74
2017-12-19T13:53:39.970Z,91.36
2017-12-19T13:55:11.196Z,91.27
2017-12-19T13:56:38.259Z,91.40
2017-12-19T13:58:05.528Z,91.47
2017-12-19T13:59:32.850Z,91.53
2017-12-19T14:01:00.180Z,91.78
2017-12-19T14:02:23.438Z,91.50
2017-12-19T14:03:54.597Z,91.11
2017-12-19T14:05:18.026Z,91.25
2017-12-19T14:06:45.327Z,91.01
2017-12-19T14:08:12.517Z,91.10
2017-12-19T14:09:43.864Z,91.33
2017-12-19T14:11:07.025Z,91.16
2017-12-19T14:12:33.980Z,91.11
2017-12-19T14:14:01.273Z,91.19
2017-12-19T14:15:28.611Z,91.18
2017-12-19T14:16:59.637Z,91.35
2017-12-19T14:18:22.996Z,91.35
2017-12-19T14:19:50.377Z,91.25
2017-12-19T14:21:17.737Z,91.49
2017-12-19T14:22:44.813Z,91.34
2017-12-19T14:24:12.041Z,91.26
2017-12-19T14:25:39.312Z,91.29
2017-12-19T14:27:10.470Z,91.44
2017-12-19T14:28:33.915Z,90.97
2017-12-19T14:30:05.199Z,91.12
2017-12-19T14:31:28.620Z,91.14
2017-12-19T14:32:55.900Z,91.19
2017-12-19T14:34:27.142Z,90.96
2017-12-19T14:35:50.505Z,91.08
2017-12-19T14:37:17.809Z,91.06
2017-12-19T14:38:48.901Z,91.04
2017-12-19T14:40:12.168Z,91.11
2017-12-19T14:41:39.444Z,91.18
2017-12-19T14:43:10.621Z,91.08
2017-12-19T14:44:33.878Z,91.09
2017-12-19T14:46:01.063Z,91.13
2017-12-19T14:47:28.366Z,90.97
2017-12-19T14:48:55.604Z,90.81
2017-12-19T14:50:26.840Z,90.64
2017-12-19T14:51:54.122Z,90.83
2017-12-19T14:53:21.348Z,90.76
2017-12-19T14:54:48.583Z,90.79
2017-12-19T14:56:15.680Z,90.78
2017-12-19T14:57:39.031Z,90.97
2017-12-19T14:59:10.257Z,90.94
2017-12-19T15:00:33.701Z,91.00
2017-12-19T15:02:04.856Z,91.11
2017-12-19T15:03:32.356Z,91.21
2017-12-19T15:04:59.690Z,91.20
2017-12-19T15:06:26.733Z,91.16
2017-12-19T15:07:50.197Z,91.02
2017-12-19T15:09:17.489Z,91.26
2017-12-19T15:10:44.536Z,91.25
2017-12-19T15:12:15.557Z,91.13
2017-12-19T15:13:38.808Z,91.36
2017-12-19T15:15:06.073Z,91.51
2017-12-19T15:16:33.308Z,91.57
2017-12-19T15:18:00.623Z,91.51
2017-12-19T15:19:27.868Z,91.62
2017-12-19T15:20:55.131Z,91.44
2017-12-19T15:22:26.520Z,91.59
2017-12-19T15:23:49.657Z,91.51
2017-12-19T15:25:16.903Z,91.39
2017-12-19T15:26:44.267Z,91.17
2017-12-19T15:28:11.496Z,91.02
2017-12-19T15:29:38.705Z,91.12
2017-12-19T15:31:05.829Z,91.08
2017-12-19T15:32:37.179Z,91.11
2017-12-19T15:34:00.377Z,91.26
2017-12-19T15:35:27.685Z,91.58
2017-12-19T15:36:55.038Z,91.86
2017-12-19T15:38:26.248Z,91.80
2017-12-19T15:39:53.302Z,91.62
2017-12-19T15:41:20.634Z,91.47
2017-12-19T15:42:43.948Z,91.30
2017-12-19T15:44:15.264Z,91.36
2017-12-19T15:45:42.506Z,91.63
2017-12-19T15:47:05.416Z,91.54
2017-12-19T15:48:32.621Z,91.79
2017-12-19T15:50:04.037Z,91.65
2017-12-19T15:51:27.293Z,91.49
2017-12-19T15:52:58.430Z,91.42
2017-12-19T15:54:25.752Z,91.31
2017-12-19T15:55:52.714Z,91.31
2017-12-19T15:57:16.093Z,91.28
2017-12-19T15:58:43.438Z,91.02
2017-12-19T16:00:10.718Z,90.98
2017-12-19T16:01:37.807Z,91.13
2017-12-19T16:03:04.944Z,91.44
2017-12-19T16:04:32.160Z,91.56
2017-12-19T16:05:59.350Z,91.55
2017-12-19T16:07:30.670Z,91.62
2017-12-19T16:08:53.856Z,91.73
2017-12-19T16:10:25.114Z,91.75
2017-12-19T16:11:52.332Z,91.75
2017-12-19T16:13:19.607Z,91.52
2017-12-19T16:14:42.877Z,91.77
2017-12-19T16:16:10.029Z,91.88
2017-12-19T16:17:37.270Z,91.60
2017-12-19T16:19:08.546Z,91.59
2017-12-19T16:20:31.888Z,91.73
2017-12-19T16:22:02.979Z,91.92
2017-12-19T16:23:26.142Z,91.76
2017-12-19T16:24:53.372Z,91.78
2017-12-19T16:26:20.570Z,91.92
2017-12-19T16:27:51.485Z,92.08
2017-12-19T16:29:14.906Z,92.02
2017-12-19T16:30:46.081Z,91.88
2017-12-19T16:32:13.474Z,91.58
2017-12-19T16:33:40.480Z,91.67
2017-12-19T16:35:03.927Z,92.00
2017-12-19T16:36:31.107Z,92.07
2017-12-19T16:38:02.133Z,91.95
2017-12-19T16:39:29.261Z,92.14
2017-12-19T16:40:56.421Z,92.20
2017-12-19T16:42:19.874Z,92.10
2017-12-19T16:43:47.031Z,91.66
2017-12-19T16:45:14.114Z,91.88
2017-12-19T16:46:41.515Z,92.05
2017-12-19T16:48:08.890Z,92.01
2017-12-19T16:49:36.142Z,92.13
2017-12-19T16:51:03.369Z,92.12
2017-12-19T16:52:34.634Z,92.22
2017-12-19T16:54:01.929Z,92.23
2017-12-19T16:55:25.099Z,92.20
2017-12-19T16:56:52.477Z,92.37
2017-12-19T16:58:19.747Z,92.44
2017-12-19T16:59:46.969Z,92.60
2017-12-19T17:01:18.078Z,92.67
2017-12-19T17:02:41.316Z,92.66
2017-12-19T17:04:08.774Z,92.73
2017-12-19T17:05:35.843Z,93.06
2017-12-19T17:07:03.080Z,93.03
2017-12-19T17:08:30.205Z,92.90
2017-12-19T17:09:57.558Z,92.97
2017-12-19T17:11:24.568Z,92.98
2017-12-19T17:12:51.933Z,92.91
2017-12-19T17:14:18.957Z,93.00
2017-12-19T17:15:46.089Z,93.08
2017-12-19T17:17:17.197Z,93.24
2017-12-19T17:18:40.553Z,93.30
2017-12-19T17:20:07.741Z,93.33
2017-12-19T17:21:35.040Z,93.25
2017-12-19T17:23:02.060Z,93.32
2017-12-19T17:24:29.343Z,93.22
2017-12-19T17:26:00.533Z,93.20
2017-12-19T17:27:27.941Z,93.18
2017-12-19T17:28:51.064Z,93.14
2017-12-19T17:30:22.498Z,93.08
2017-12-19T17:31:46.005Z,93.06
2017-12-19T17:33:12.912Z,93.01
2017-12-19T17:34:40.357Z,92.84
2017-12-19T17:36:11.756Z,92.72
2017-12-19T17:37:38.625Z,92.68
2017-12-19T17:39:01.774Z,92.46
2017-12-19T17:40:28.988Z,92.22
2017-12-19T17:41:56.005Z,92.15
2017-12-19T17:43:27.185Z,92.09
2017-12-19T17:44:50.534Z,91.98
2017-12-19T17:46:21.648Z,91.80
2017-12-19T17:47:44.815Z,91.73
2017-12-19T17:49:16.029Z,91.48
2017-12-19T17:50:39.369Z,91.56
2017-12-19T17:52:10.736Z,91.44
2017-12-19T17:53:33.561Z,91.34
2017-12-19T17:55:04.930Z,91.28
2017-12-19T17:56:32.010Z,91.20
2017-12-19T17:57:55.202Z,91.12
2017-12-19T17:59:22.354Z,90.93
2017-12-19T18:00:49.576Z,90.89
2017-12-19T18:02:16.713Z,90.77
2017-12-19T18:03:44.089Z,90.75
2017-12-19T18:05:11.278Z,90.70
2017-12-19T18:06:42.562Z,90.97
2017-12-19T18:08:05.736Z,91.30
2017-12-19T18:09:32.984Z,91.48
2017-12-19T18:11:04.296Z,91.74
2017-12-19T18:12:31.363Z,91.91
2017-12-19T18:13:58.574Z,91.98
2017-12-19T18:15:22.067Z,91.90
2017-12-19T18:16:53.243Z,91.92
2017-12-19T18:18:20.431Z,91.88
2017-12-19T18:19:43.866Z,91.89
2017-12-19T18:21:11.232Z,91.85
2017-12-19T18:22:42.442Z,91.51
2017-12-19T18:24:05.699Z,91.36
2017-12-19T18:25:32.968Z,91.36
2017-12-19T18:27:00.218Z,91.48
2017-12-19T18:28:27.510Z,91.42
2017-12-19T18:29:54.867Z,91.32
2017-12-19T18:31:22.216Z,91.20
2017-12-19T18:32:53.343Z,91.00
2017-12-19T18:34:20.777Z,91.02
2017-12-19T18:35:43.859Z,91.00
2017-12-19T18:37:11.057Z,91.01
2017-12-19T18:38:38.390Z,90.96
2017-12-19T18:40:09.563Z,90.93
2017-12-19T18:41:36.877Z,90.97
2017-12-19T18:43:04.046Z,91.02